Beech Grove, AR

1:53 PM CDT on September 01, 2014 (GMT -0500)
3 Miles NW | Change Station
CLOSE
Current Station
Personal Weather Station
Location: Marmaduke, AR
Elevation: 351 ft
Nearby Weather Stations

Elev 351 ft 36.21 °N, 90.45 °W | Updated 7 seconds ago

Mostly Cloudy
Mostly Cloudy
86.7 °F
Feels Like 101 °F
N
6.9
Wind Variable Wind from South
Gusts 6.9 mph

Today
High -- | Low -- °F
--% Chance of Precip.
Yesterday
High -- | Low -- °F
Precip. -- in
6:34 AM 7:30 PM
Waxing Crescent, 43% visible
Pressure 29.96 in
Visibility 10.0 miles
Clouds Scattered Clouds 3800 ft
Scattered Clouds 4600 ft
Mostly Cloudy 5000 ft
Heat Index 101 °F
Dew Point 79 °F
Humidity 78%
Rainfall 0.00 in
Snow Depth Not available.
UV 0.0 out of 12
Pollen 10.90 out of 12
Air Quality Not available.
Flu Activity Not available.
METAR KARG 011835Z AUTO 20011KT 10SM SCT038 SCT046 BKN050 31/13 A2996 RMK AO1

More Conditions Fewer Conditions

Pressure 29.96 in
Visibility 10.0 miles
Clouds Scattered Clouds 3800 ft
Scattered Clouds 4600 ft
Mostly Cloudy 5000 ft
Heat Index 101 °F
Dew Point 79 °F
Humidity 78%
Rainfall 0.00 in
Snow Depth Not available.
UV 0.0 out of 12
Pollen 10.90 out of 12
Air Quality Not available.
Flu Activity Not available.
METAR KARG 011835Z AUTO 20011KT 10SM SCT038 SCT046 BKN050 31/13 A2996 RMK AO1

More Conditions Fewer Conditions

10-Day Weather Forecast

Almanac

Astronomy

Sep. 01, 2014 Rise Set
Actual Time 6:34 AM CDT 7:30 PM CDT
Civil Twilight 6:07 AM CDT 7:56 PM CDT
Nautical Twilight 5:36 AM CDT 8:27 PM CDT
Astronomical Twilight 5:04 AM CDT 8:59 PM CDT
Moon 1:07 PM CDT 11:43 PM CDT
Length of Visible Light 13h 48m
Length of Day
12h 56m
Tomorrow will be 2m 12s shorter.
Waxing Crescent, 43% of the Moon is Illuminated
Today
Waxing Crescent
Sep 2
First Quarter
Sep 8
Full
Sep 15
Last Quarter
Sep 24
New

Today's Extremes

State Highs State Lows

Community

WunderPhotos

Upload Photos

1,749,359 photos uploaded!

Nearby

Snow Depth

Station Depth Elevation
No new snow has been reported.

Earthquake Activity

City Distance Mag. Time & Date
Tiptonville, Tennessee 62 miles 2.9 11:19 PM CDT
2014-08-31
Minimum magnitude displayed is 2.5.

Coastal Water Temperatures

Place Temperature
No Stations Reporting

Nearby Weather Stations